createdAt,value
2017-07-26T00:00:32.883Z,2.60
2017-07-26T00:03:00.435Z,2.20
2017-07-26T00:05:27.879Z,2.57
2017-07-26T00:07:55.339Z,2.20
2017-07-26T00:10:22.809Z,3.57
2017-07-26T00:12:50.291Z,3.30
2017-07-26T00:15:17.736Z,3.17
2017-07-26T00:17:45.232Z,5.07
2017-07-26T00:20:12.741Z,4.80
2017-07-26T00:22:40.199Z,5.00
2017-07-26T00:25:07.640Z,4.90
2017-07-26T00:27:35.104Z,5.33
2017-07-26T00:30:02.547Z,6.23
2017-07-26T00:32:30.003Z,6.60
2017-07-26T00:34:57.472Z,5.40
2017-07-26T00:37:24.905Z,5.63
2017-07-26T00:39:52.391Z,6.53
2017-07-26T00:42:19.948Z,6.90
2017-07-26T00:44:47.413Z,6.33
2017-07-26T00:47:14.955Z,6.07
2017-07-26T00:49:42.414Z,7.23
2017-07-26T00:52:09.842Z,7.23
2017-07-26T00:54:37.327Z,6.60
2017-07-26T00:57:04.788Z,7.43
2017-07-26T00:59:32.339Z,7.17
2017-07-26T01:01:59.769Z,6.27
2017-07-26T01:04:27.362Z,5.80
2017-07-26T01:06:55.392Z,5.20
2017-07-26T01:09:22.890Z,5.73
2017-07-26T01:11:50.361Z,6.20
2017-07-26T01:14:17.906Z,6.90
2017-07-26T01:16:45.362Z,6.17
2017-07-26T01:19:13.445Z,6.00
2017-07-26T01:21:40.916Z,6.10
2017-07-26T01:24:08.429Z,6.40
2017-07-26T01:26:35.899Z,6.83
2017-07-26T01:29:03.329Z,5.93
2017-07-26T01:31:30.805Z,5.43
2017-07-26T01:33:58.233Z,5.30
2017-07-26T01:36:25.683Z,6.47
2017-07-26T01:38:53.198Z,5.90
2017-07-26T01:41:20.686Z,5.50
2017-07-26T01:43:48.145Z,7.00
2017-07-26T01:46:15.601Z,7.30
2017-07-26T01:48:43.167Z,6.57
2017-07-26T01:51:10.602Z,8.13
2017-07-26T01:53:38.122Z,6.80
2017-07-26T01:56:05.558Z,7.33
2017-07-26T01:58:33.021Z,7.77
2017-07-26T02:01:00.463Z,7.27
2017-07-26T02:03:27.917Z,7.17
2017-07-26T02:05:55.407Z,9.13
2017-07-26T02:08:22.914Z,7.70
2017-07-26T02:10:50.426Z,9.80
2017-07-26T02:13:17.867Z,9.60
2017-07-26T02:15:45.352Z,10.50
2017-07-26T02:18:12.890Z,10.47
2017-07-26T02:20:40.453Z,11.27
2017-07-26T02:23:07.902Z,9.63
2017-07-26T02:25:35.375Z,11.03
2017-07-26T02:28:02.824Z,11.90
2017-07-26T02:30:30.339Z,11.47
2017-07-26T02:32:57.895Z,11.83
2017-07-26T02:35:25.380Z,12.23
2017-07-26T02:37:52.862Z,12.37
2017-07-26T02:40:20.330Z,12.23
2017-07-26T02:42:47.771Z,12.30
2017-07-26T02:45:15.253Z,10.83
2017-07-26T02:47:42.938Z,14.00
2017-07-26T02:50:10.407Z,11.43
2017-07-26T02:52:37.863Z,12.30
2017-07-26T02:55:05.361Z,12.90
2017-07-26T02:57:32.797Z,12.40
2017-07-26T03:00:00.514Z,10.73
2017-07-26T03:02:27.953Z,12.33
2017-07-26T03:04:55.419Z,12.47
2017-07-26T03:07:22.948Z,12.00
2017-07-26T03:09:50.497Z,12.97
2017-07-26T03:12:18.318Z,12.87
2017-07-26T03:14:45.827Z,11.43
2017-07-26T03:17:13.392Z,11.00
2017-07-26T03:19:40.841Z,13.30
2017-07-26T03:22:08.330Z,11.63
2017-07-26T03:24:36.061Z,12.30
2017-07-26T03:27:03.605Z,14.50
2017-07-26T03:29:31.086Z,12.00
2017-07-26T03:31:58.569Z,14.13
2017-07-26T03:34:26.027Z,13.63
2017-07-26T03:36:53.855Z,14.60
2017-07-26T03:39:21.420Z,15.43
2017-07-26T03:41:48.977Z,15.80
2017-07-26T03:44:16.426Z,16.47
2017-07-26T03:46:43.869Z,15.77
2017-07-26T03:49:11.650Z,18.30
2017-07-26T03:51:39.143Z,17.30
2017-07-26T03:54:06.626Z,20.30
2017-07-26T03:56:34.071Z,16.77
2017-07-26T03:59:01.575Z,17.53
2017-07-26T04:01:29.071Z,16.77
2017-07-26T04:03:56.548Z,19.80
2017-07-26T04:06:24.044Z,16.13
2017-07-26T04:08:51.510Z,15.80
2017-07-26T04:11:18.951Z,14.57
2017-07-26T04:13:46.440Z,15.50
2017-07-26T04:16:14.259Z,15.50
2017-07-26T04:18:41.738Z,15.03
2017-07-26T04:21:09.304Z,12.13
2017-07-26T04:23:36.860Z,13.50
2017-07-26T04:26:04.310Z,15.10
2017-07-26T04:28:31.996Z,14.00
2017-07-26T04:30:59.543Z,14.47
2017-07-26T04:33:27.099Z,13.70
2017-07-26T04:35:54.575Z,13.60
2017-07-26T04:38:22.113Z,13.00
2017-07-26T04:40:49.885Z,14.60
2017-07-26T04:43:17.435Z,14.70
2017-07-26T04:45:44.897Z,13.37
2017-07-26T04:48:12.350Z,13.67
2017-07-26T04:50:39.821Z,14.30
2017-07-26T04:53:07.421Z,12.93
2017-07-26T04:55:34.876Z,12.63
2017-07-26T04:58:02.328Z,13.13
2017-07-26T05:00:29.789Z,12.60
2017-07-26T05:02:57.241Z,14.43
2017-07-26T05:05:24.752Z,13.60
2017-07-26T05:07:52.205Z,12.77
2017-07-26T05:10:19.779Z,10.57
2017-07-26T05:12:47.246Z,9.20
2017-07-26T05:15:14.692Z,6.93
2017-07-26T05:17:42.150Z,6.80
2017-07-26T05:20:09.688Z,4.70
2017-07-26T05:22:37.235Z,4.67
2017-07-26T05:25:04.691Z,4.10
2017-07-26T05:27:32.266Z,2.60
2017-07-26T05:29:59.717Z,3.10
2017-07-26T05:32:27.183Z,2.60
2017-07-26T05:34:54.626Z,1.73
2017-07-26T05:37:22.091Z,2.23
2017-07-26T05:39:49.523Z,2.50
2017-07-26T05:42:17.004Z,2.27
2017-07-26T05:44:44.784Z,2.00
2017-07-26T05:47:12.275Z,2.13
2017-07-26T05:49:39.727Z,2.40
2017-07-26T05:52:07.244Z,2.50
2017-07-26T05:54:34.678Z,2.73
2017-07-26T05:57:02.133Z,2.30
2017-07-26T05:59:29.698Z,2.80
2017-07-26T06:01:57.124Z,3.30
2017-07-26T06:04:24.595Z,2.97
2017-07-26T06:06:52.030Z,2.80
2017-07-26T06:09:20.019Z,3.50
2017-07-26T06:11:47.465Z,3.30
2017-07-26T06:14:15.852Z,3.20
2017-07-26T06:16:43.291Z,3.60
2017-07-26T06:19:10.780Z,3.57
2017-07-26T06:21:38.808Z,4.33
2017-07-26T06:24:06.321Z,4.67
2017-07-26T06:26:33.775Z,4.40
2017-07-26T06:29:01.279Z,4.80
2017-07-26T06:31:28.708Z,4.60
2017-07-26T06:33:56.231Z,5.17
2017-07-26T06:36:23.670Z,4.50
2017-07-26T06:38:51.160Z,3.93
2017-07-26T06:41:18.718Z,4.20
2017-07-26T06:43:46.146Z,4.63
2017-07-26T06:46:13.695Z,4.80
2017-07-26T06:48:41.191Z,4.63
2017-07-26T06:51:08.973Z,5.00
2017-07-26T06:53:36.516Z,4.70
2017-07-26T06:56:03.983Z,5.00
2017-07-26T06:58:31.902Z,5.63
2017-07-26T07:00:59.361Z,5.30
2017-07-26T07:03:26.841Z,5.60
2017-07-26T07:05:54.414Z,5.50
2017-07-26T07:08:21.847Z,5.33
2017-07-26T07:10:49.526Z,5.90
2017-07-26T07:13:16.952Z,4.90
2017-07-26T07:15:44.424Z,4.90
2017-07-26T07:18:11.859Z,5.57
2017-07-26T07:20:39.332Z,4.97
2017-07-26T07:23:07.039Z,5.20
2017-07-26T07:25:34.571Z,4.47
2017-07-26T07:28:02.034Z,5.17
2017-07-26T07:30:29.587Z,4.83
2017-07-26T07:32:57.038Z,4.97
2017-07-26T07:35:24.511Z,4.90
2017-07-26T07:37:51.949Z,5.07
2017-07-26T07:40:19.391Z,4.80
2017-07-26T07:42:46.872Z,5.60
2017-07-26T07:45:14.304Z,5.40
2017-07-26T07:47:41.767Z,5.37
2017-07-26T07:50:09.239Z,5.30
2017-07-26T07:52:36.707Z,5.93
2017-07-26T07:55:04.275Z,5.20
2017-07-26T07:57:31.811Z,4.67
2017-07-26T07:59:59.523Z,4.60
2017-07-26T08:02:27.051Z,5.80
2017-07-26T08:04:54.493Z,4.40
2017-07-26T08:07:21.953Z,4.60
2017-07-26T08:09:49.485Z,4.17
2017-07-26T08:12:17.082Z,4.53
2017-07-26T08:14:44.524Z,4.53
2017-07-26T08:17:12.065Z,3.70
2017-07-26T08:19:39.522Z,3.67
2017-07-26T08:22:06.971Z,3.30
2017-07-26T08:24:34.908Z,3.20
2017-07-26T08:27:02.364Z,4.67
2017-07-26T08:29:30.058Z,5.17
2017-07-26T08:31:57.536Z,3.77
2017-07-26T08:34:25.225Z,4.93
2017-07-26T08:36:54.042Z,4.63
2017-07-26T08:39:21.499Z,3.30
2017-07-26T08:41:48.939Z,4.33
2017-07-26T08:44:16.393Z,3.97
2017-07-26T08:46:43.839Z,5.03
2017-07-26T08:49:11.294Z,3.87
2017-07-26T08:51:38.765Z,4.77
2017-07-26T08:54:06.283Z,4.77
2017-07-26T08:56:33.735Z,4.83
2017-07-26T08:59:01.216Z,4.80
2017-07-26T09:01:29.313Z,4.30
2017-07-26T09:03:56.770Z,3.67
2017-07-26T09:06:24.239Z,4.53
2017-07-26T09:08:51.699Z,5.43
2017-07-26T09:11:19.167Z,3.63
2017-07-26T09:13:46.638Z,4.30
2017-07-26T09:16:14.132Z,4.13
2017-07-26T09:18:41.571Z,4.53
2017-07-26T09:21:09.124Z,3.53
2017-07-26T09:23:36.685Z,4.63
2017-07-26T09:26:04.543Z,3.70
2017-07-26T09:28:32.059Z,5.70
2017-07-26T09:30:59.559Z,2.87
2017-07-26T09:33:27.015Z,3.20
2017-07-26T09:35:54.477Z,3.20
2017-07-26T09:38:21.918Z,3.10
2017-07-26T09:40:49.390Z,3.60
2017-07-26T09:43:16.964Z,3.80
2017-07-26T09:45:44.436Z,2.63
2017-07-26T09:48:11.963Z,4.60
2017-07-26T09:50:39.431Z,3.87
2017-07-26T09:53:06.875Z,3.37
2017-07-26T09:55:34.315Z,3.80
2017-07-26T09:58:01.792Z,3.77
2017-07-26T10:00:29.231Z,3.33
2017-07-26T10:02:56.821Z,4.03
2017-07-26T10:05:24.277Z,3.80
2017-07-26T10:07:51.821Z,3.80
2017-07-26T10:10:19.249Z,3.03
2017-07-26T10:12:46.710Z,3.40
2017-07-26T10:15:14.270Z,3.23
2017-07-26T10:17:41.828Z,3.77
2017-07-26T10:20:09.256Z,3.30
2017-07-26T10:22:36.719Z,3.30
2017-07-26T10:25:04.163Z,3.40
2017-07-26T10:27:32.199Z,2.77
2017-07-26T10:29:59.702Z,2.30
2017-07-26T10:32:27.158Z,2.40
2017-07-26T10:34:54.654Z,2.57
2017-07-26T10:37:22.109Z,2.57
2017-07-26T10:39:49.770Z,3.70
2017-07-26T10:42:17.346Z,3.17
2017-07-26T10:44:44.777Z,2.53
2017-07-26T10:47:12.221Z,2.30
2017-07-26T10:49:39.685Z,2.70
2017-07-26T10:52:07.128Z,2.90
2017-07-26T10:54:34.597Z,2.80
2017-07-26T10:57:02.067Z,2.90
2017-07-26T10:59:29.628Z,3.00
2017-07-26T11:01:57.061Z,3.60
2017-07-26T11:04:24.758Z,4.00
2017-07-26T11:06:52.215Z,2.97
2017-07-26T11:09:20.569Z,3.83
2017-07-26T11:11:48.030Z,3.60
2017-07-26T11:14:15.490Z,4.00
2017-07-26T11:16:43.005Z,3.50
2017-07-26T11:19:10.474Z,3.87
2017-07-26T11:21:37.905Z,4.73
2017-07-26T11:24:05.362Z,3.70
2017-07-26T11:26:32.896Z,3.40
2017-07-26T11:29:00.434Z,4.00
2017-07-26T11:31:27.904Z,3.97
2017-07-26T11:33:55.347Z,3.93
2017-07-26T11:36:22.851Z,3.87
2017-07-26T11:38:50.316Z,4.47
2017-07-26T11:41:17.774Z,3.60
2017-07-26T11:43:45.265Z,3.27
2017-07-26T11:46:12.826Z,4.27
2017-07-26T11:48:40.263Z,3.27
2017-07-26T11:51:07.717Z,3.20
2017-07-26T11:53:35.197Z,3.70
2017-07-26T11:56:02.660Z,4.00
2017-07-26T11:58:30.132Z,4.27
2017-07-26T12:00:57.687Z,3.30
2017-07-26T12:03:25.118Z,4.03
2017-07-26T12:05:52.598Z,3.63
2017-07-26T12:08:20.073Z,4.23
2017-07-26T12:10:47.604Z,4.00
2017-07-26T12:13:15.072Z,3.30
2017-07-26T12:15:42.675Z,4.10
2017-07-26T12:18:10.181Z,3.27
2017-07-26T12:20:37.647Z,3.77
2017-07-26T12:23:05.198Z,4.27
2017-07-26T12:25:32.635Z,4.00
2017-07-26T12:28:00.097Z,3.60
2017-07-26T12:30:27.565Z,4.27
2017-07-26T12:32:55.119Z,4.23
2017-07-26T12:35:22.580Z,4.13
2017-07-26T12:37:50.090Z,4.07
2017-07-26T12:40:17.590Z,3.70
2017-07-26T12:42:45.052Z,4.00
2017-07-26T12:45:12.504Z,3.70
2017-07-26T12:47:39.964Z,3.80
2017-07-26T12:50:07.532Z,3.23
2017-07-26T12:52:35.136Z,3.50
2017-07-26T12:55:02.640Z,3.67
2017-07-26T12:57:30.093Z,3.87
2017-07-26T12:59:57.546Z,4.27
2017-07-26T13:02:24.969Z,3.80
2017-07-26T13:04:52.463Z,3.63
2017-07-26T13:07:19.923Z,3.20
2017-07-26T13:09:47.482Z,3.10
2017-07-26T13:12:14.927Z,2.70
2017-07-26T13:14:42.496Z,2.23
2017-07-26T13:17:09.953Z,2.73
2017-07-26T13:19:37.512Z,3.40
2017-07-26T13:22:04.953Z,2.63
2017-07-26T13:24:32.509Z,2.10
2017-07-26T13:26:59.942Z,3.33
2017-07-26T13:29:27.494Z,2.33
2017-07-26T13:31:54.942Z,2.20
2017-07-26T13:34:22.509Z,2.60
2017-07-26T13:36:49.963Z,2.70
2017-07-26T13:39:17.462Z,3.00
2017-07-26T13:41:45.032Z,2.93
2017-07-26T13:44:12.471Z,3.17
2017-07-26T13:46:39.954Z,3.60
2017-07-26T13:49:07.485Z,3.70
2017-07-26T13:51:35.056Z,3.50
2017-07-26T13:54:02.497Z,3.17
2017-07-26T13:56:29.950Z,3.23
2017-07-26T13:58:57.383Z,3.53
2017-07-26T14:01:24.939Z,2.80
2017-07-26T14:03:52.388Z,3.23
2017-07-26T14:06:19.872Z,3.47
2017-07-26T14:08:47.320Z,3.07
2017-07-26T14:11:14.754Z,2.47
2017-07-26T14:13:42.226Z,3.87
2017-07-26T14:16:09.683Z,3.67
2017-07-26T14:18:37.174Z,2.80
2017-07-26T14:21:04.640Z,3.67
2017-07-26T14:23:32.181Z,3.07
2017-07-26T14:25:59.635Z,3.30
2017-07-26T14:28:27.217Z,2.83
2017-07-26T14:30:54.781Z,3.70
2017-07-26T14:33:22.331Z,3.20
2017-07-26T14:35:49.768Z,2.97
2017-07-26T14:38:17.225Z,3.40
2017-07-26T14:40:44.685Z,3.60
2017-07-26T14:43:12.147Z,4.40
2017-07-26T14:45:39.586Z,3.80
2017-07-26T14:48:07.042Z,4.03
2017-07-26T14:50:34.519Z,3.90
2017-07-26T14:53:02.076Z,3.13
2017-07-26T14:55:29.535Z,3.50
2017-07-26T14:57:56.975Z,4.17
2017-07-26T15:00:24.453Z,3.17
2017-07-26T15:02:51.891Z,3.40
2017-07-26T15:05:19.351Z,3.37
2017-07-26T15:07:46.826Z,4.80
2017-07-26T15:10:14.283Z,3.10
2017-07-26T15:12:41.791Z,3.60
2017-07-26T15:15:09.266Z,3.60
2017-07-26T15:17:36.701Z,3.07
2017-07-26T15:20:04.193Z,3.60
2017-07-26T15:22:31.900Z,3.10
2017-07-26T15:24:59.349Z,3.93
2017-07-26T15:27:26.806Z,3.70
2017-07-26T15:29:54.291Z,3.60
2017-07-26T15:32:21.781Z,3.93
2017-07-26T15:34:49.580Z,3.23
2017-07-26T15:37:17.043Z,3.90
2017-07-26T15:39:44.498Z,3.50
2017-07-26T15:42:11.963Z,3.40
2017-07-26T15:44:39.473Z,3.13
2017-07-26T15:47:07.396Z,3.30
2017-07-26T15:49:34.843Z,4.60
2017-07-26T15:52:02.306Z,3.70
2017-07-26T15:54:29.751Z,4.57
2017-07-26T15:56:57.270Z,3.90
2017-07-26T15:59:24.734Z,3.67
2017-07-26T16:01:52.196Z,3.87
2017-07-26T16:04:19.738Z,3.17
2017-07-26T16:06:47.195Z,3.57
2017-07-26T16:09:14.637Z,2.90
2017-07-26T16:11:42.121Z,4.00
2017-07-26T16:14:09.549Z,3.80
2017-07-26T16:16:37.022Z,2.97
2017-07-26T16:19:04.477Z,3.80
2017-07-26T16:21:31.919Z,3.80
2017-07-26T16:23:59.584Z,3.50
2017-07-26T16:26:27.017Z,3.60
2017-07-26T16:28:54.527Z,3.83
2017-07-26T16:31:21.958Z,3.37
2017-07-26T16:33:49.517Z,3.80
2017-07-26T16:36:16.953Z,4.30
2017-07-26T16:38:44.415Z,3.63
2017-07-26T16:41:11.855Z,3.17
2017-07-26T16:43:39.349Z,3.40
2017-07-26T16:46:06.805Z,4.20
2017-07-26T16:48:34.376Z,3.20
2017-07-26T16:51:01.806Z,4.50
2017-07-26T16:53:29.267Z,3.73
2017-07-26T16:55:56.735Z,2.90
2017-07-26T16:58:24.295Z,2.83
2017-07-26T17:00:52.343Z,3.73
2017-07-26T17:03:19.827Z,2.87
2017-07-26T17:05:47.262Z,3.20
2017-07-26T17:08:14.707Z,3.00
2017-07-26T17:10:42.182Z,2.60
2017-07-26T17:13:09.857Z,2.40
2017-07-26T17:15:37.441Z,2.73
2017-07-26T17:18:05.289Z,3.10
2017-07-26T17:20:32.776Z,2.70
2017-07-26T17:23:00.228Z,2.37
2017-07-26T17:25:28.103Z,2.33
2017-07-26T17:27:55.676Z,2.60
2017-07-26T17:30:23.184Z,2.20
2017-07-26T17:32:50.640Z,2.20
2017-07-26T17:35:18.122Z,2.27
2017-07-26T17:37:45.657Z,2.57
2017-07-26T17:40:13.129Z,2.60
2017-07-26T17:42:40.599Z,2.77
2017-07-26T17:45:08.070Z,2.20
2017-07-26T17:47:35.512Z,1.97
2017-07-26T17:50:03.092Z,2.77
2017-07-26T17:52:30.560Z,2.23
2017-07-26T17:54:58.156Z,2.10
2017-07-26T17:57:25.603Z,2.33
2017-07-26T17:59:53.157Z,2.30
2017-07-26T18:02:20.660Z,2.40
2017-07-26T18:04:48.089Z,1.93
2017-07-26T18:07:16.514Z,2.43
2017-07-26T18:09:43.971Z,2.90
2017-07-26T18:12:11.429Z,2.63
2017-07-26T18:14:38.921Z,2.00
2017-07-26T18:17:06.378Z,2.40
2017-07-26T18:19:33.865Z,2.07
2017-07-26T18:22:01.325Z,2.10
2017-07-26T18:24:28.762Z,1.83
2017-07-26T18:26:56.214Z,2.17
2017-07-26T18:29:23.651Z,2.50
2017-07-26T18:31:51.117Z,2.40
2017-07-26T18:34:18.584Z,1.97
2017-07-26T18:36:46.029Z,2.40
2017-07-26T18:39:13.493Z,2.00
2017-07-26T18:41:40.940Z,2.70
2017-07-26T18:44:08.409Z,2.23
2017-07-26T18:46:35.857Z,2.40
2017-07-26T18:49:03.309Z,2.43
2017-07-26T18:51:30.832Z,2.73
2017-07-26T18:53:58.325Z,2.20
2017-07-26T18:56:25.768Z,2.70
2017-07-26T18:58:53.231Z,2.80
2017-07-26T19:01:20.667Z,2.50
2017-07-26T19:03:48.159Z,2.67
2017-07-26T19:06:15.656Z,2.20
2017-07-26T19:08:43.147Z,2.27
2017-07-26T19:11:10.635Z,2.13
2017-07-26T19:13:38.102Z,2.40
2017-07-26T19:16:05.633Z,2.13
2017-07-26T19:18:33.080Z,2.40
2017-07-26T19:21:00.526Z,2.00
2017-07-26T19:23:27.979Z,2.43
2017-07-26T19:25:55.565Z,2.90
2017-07-26T19:28:23.800Z,4.13
2017-07-26T19:30:51.319Z,2.80
2017-07-26T19:33:18.773Z,2.63
2017-07-26T19:35:46.265Z,3.00
2017-07-26T19:38:16.528Z,2.77
2017-07-26T19:40:43.998Z,2.57
2017-07-26T19:43:11.467Z,3.27
2017-07-26T19:45:38.930Z,2.97
2017-07-26T19:48:06.392Z,2.60
2017-07-26T19:50:33.948Z,2.43
2017-07-26T19:53:01.406Z,2.67
2017-07-26T19:55:28.887Z,2.30
2017-07-26T19:57:56.355Z,2.83
2017-07-26T20:00:23.874Z,3.83
2017-07-26T20:02:51.318Z,2.80
2017-07-26T20:05:18.806Z,4.20
2017-07-26T20:07:46.334Z,3.00
2017-07-26T20:10:13.927Z,3.03
2017-07-26T20:12:41.392Z,2.53
2017-07-26T20:15:08.842Z,3.17
2017-07-26T20:17:36.325Z,2.67
2017-07-26T20:20:03.770Z,3.40
2017-07-26T20:22:31.335Z,3.33
2017-07-26T20:24:58.780Z,2.87
2017-07-26T20:27:27.166Z,3.17
2017-07-26T20:29:54.611Z,2.87
2017-07-26T20:32:22.083Z,3.37
2017-07-26T20:34:49.529Z,3.13
2017-07-26T20:37:17.000Z,3.10
2017-07-26T20:39:44.568Z,2.70
2017-07-26T20:42:12.243Z,3.37
2017-07-26T20:44:39.723Z,2.80
2017-07-26T20:47:07.189Z,3.17
2017-07-26T20:49:34.779Z,2.70
2017-07-26T20:52:02.281Z,3.00
2017-07-26T20:54:29.702Z,4.10
2017-07-26T20:56:57.183Z,3.60
2017-07-26T20:59:24.646Z,3.60
2017-07-26T21:01:52.127Z,3.57
2017-07-26T21:04:20.679Z,3.10
2017-07-26T21:06:48.151Z,3.90
2017-07-26T21:09:15.606Z,3.40
2017-07-26T21:11:43.048Z,3.70
2017-07-26T21:14:10.527Z,3.67
2017-07-26T21:16:38.071Z,3.40
2017-07-26T21:19:05.545Z,3.77
2017-07-26T21:21:33.045Z,4.00
2017-07-26T21:24:00.499Z,3.70
2017-07-26T21:26:27.940Z,3.67
2017-07-26T21:28:55.463Z,3.10
2017-07-26T21:31:22.906Z,3.87
2017-07-26T21:33:50.461Z,3.50
2017-07-26T21:36:17.923Z,3.67
2017-07-26T21:38:45.394Z,4.47
2017-07-26T21:41:12.832Z,4.00
2017-07-26T21:43:40.399Z,3.13
2017-07-26T21:46:07.849Z,4.27
2017-07-26T21:48:35.422Z,4.30
2017-07-26T21:51:02.854Z,4.33
2017-07-26T21:53:30.337Z,3.43
2017-07-26T21:55:57.791Z,3.43
2017-07-26T21:58:25.235Z,3.40
2017-07-26T22:00:52.690Z,3.80
2017-07-26T22:03:20.134Z,4.27
2017-07-26T22:05:47.611Z,4.30
2017-07-26T22:08:15.042Z,4.03
2017-07-26T22:10:42.507Z,4.30
2017-07-26T22:13:09.959Z,3.83
2017-07-26T22:15:37.410Z,3.70
2017-07-26T22:18:04.899Z,3.57
2017-07-26T22:20:32.438Z,3.77
2017-07-26T22:22:59.877Z,4.53
2017-07-26T22:25:27.360Z,4.97
2017-07-26T22:27:54.797Z,3.23
2017-07-26T22:30:22.263Z,5.17
2017-07-26T22:32:49.714Z,4.30
2017-07-26T22:35:17.174Z,3.60
2017-07-26T22:37:44.651Z,4.10
2017-07-26T22:40:12.171Z,4.27
2017-07-26T22:42:39.653Z,4.80
2017-07-26T22:45:07.110Z,4.20
2017-07-26T22:47:34.556Z,4.30
2017-07-26T22:50:02.090Z,4.40
2017-07-26T22:52:29.586Z,4.13
2017-07-26T22:54:57.048Z,3.30
2017-07-26T22:57:24.507Z,4.33
2017-07-26T22:59:51.943Z,4.77
2017-07-26T23:02:19.411Z,5.20
2017-07-26T23:07:39.795Z,4.80
2017-07-26T23:10:07.246Z,4.70
2017-07-26T23:12:34.732Z,5.20
2017-07-26T23:15:02.158Z,5.03
2017-07-26T23:17:29.658Z,4.43
2017-07-26T23:19:58.534Z,4.27
2017-07-26T23:22:26.105Z,4.67
2017-07-26T23:24:53.570Z,4.40
2017-07-26T23:27:21.025Z,4.90
2017-07-26T23:29:48.751Z,3.80
2017-07-26T23:32:16.291Z,4.23
2017-07-26T23:34:43.732Z,4.43
2017-07-26T23:37:11.186Z,3.90
2017-07-26T23:39:38.631Z,4.73
2017-07-26T23:42:06.418Z,4.90
2017-07-26T23:44:33.940Z,4.60
2017-07-26T23:47:01.500Z,5.30
2017-07-26T23:49:28.945Z,4.83
2017-07-26T23:51:56.493Z,5.60
2017-07-26T23:54:23.959Z,4.57
2017-07-26T23:56:51.427Z,4.20
2017-07-26T23:59:18.986Z,5.53
